Alexandria, Indiana
Current Conditions -  °F | °C
As of 4:53 AM on Monday 20 Oct 2014 (Local Time) from KMIE Reporting Station
Light Rain Light Rain  
Wind Chill: 45°   Ceiling: 9500
Heat Index: 49°   Visibility: 9mi
Dew Point: 43°   Wind: 8mph
Humidity: 80%   Direction: 220°SW
Pressure: 29.96"   Gusts: NA
Location:  40.26°N, 85.67°W
Report Text: KMIE 200853Z AUTO 22007KT 9SM -RA FEW050 SCT070 OVC095 09/06 A2996 RMK AO2 RAB48 SLP141 P0000 60000 T00940061 58019
Loading
Personal Weather Stations






























Interactive Weather Map
Tropical Storm Tracking
New forecast layout! Learn more

10-Day Weather Forecast

Advertisements
Track Severe Weather on mobile